sensor_id;sensor_type;location;lat;lon;timestamp;P1;durP1;ratioP1;P2;durP2;ratioP2
7545;SDS011;3814;51.454;12.616;2022-09-21T00:02:04;4.82;;;2.40;;
7545;SDS011;3814;51.454;12.616;2022-09-21T00:04:30;3.97;;;2.20;;
7545;SDS011;3814;51.454;12.616;2022-09-21T00:06:55;4.65;;;2.40;;
7545;SDS011;3814;51.454;12.616;2022-09-21T00:09:21;3.13;;;2.10;;
7545;SDS011;3814;51.454;12.616;2022-09-21T00:11:46;3.83;;;2.15;;
7545;SDS011;3814;51.454;12.616;2022-09-21T00:14:12;4.00;;;1.90;;
7545;SDS011;3814;51.454;12.616;2022-09-21T00:16:39;3.92;;;1.80;;
7545;SDS011;3814;51.454;12.616;2022-09-21T00:19:05;6.63;;;1.83;;
7545;SDS011;3814;51.454;12.616;2022-09-21T00:21:31;3.40;;;2.00;;
7545;SDS011;3814;51.454;12.616;2022-09-21T00:23:58;3.25;;;2.08;;
7545;SDS011;3814;51.454;12.616;2022-09-21T00:26:24;3.22;;;2.13;;
7545;SDS011;3814;51.454;12.616;2022-09-21T00:28:53;3.03;;;1.98;;
7545;SDS011;3814;51.454;12.616;2022-09-21T00:33:45;6.22;;;1.85;;
7545;SDS011;3814;51.454;12.616;2022-09-21T00:36:11;5.28;;;2.30;;
7545;SDS011;3814;51.454;12.616;2022-09-21T00:38:40;3.33;;;2.03;;
7545;SDS011;3814;51.454;12.616;2022-09-21T00:41:07;4.95;;;2.40;;
7545;SDS011;3814;51.454;12.616;2022-09-21T00:43:33;3.58;;;2.22;;
7545;SDS011;3814;51.454;12.616;2022-09-21T00:46:02;3.72;;;2.30;;
7545;SDS011;3814;51.454;12.616;2022-09-21T00:48:29;3.78;;;2.30;;
7545;SDS011;3814;51.454;12.616;2022-09-21T00:50:55;3.97;;;2.30;;
7545;SDS011;3814;51.454;12.616;2022-09-21T00:53:23;4.32;;;2.25;;
7545;SDS011;3814;51.454;12.616;2022-09-21T00:55:50;7.85;;;2.45;;
7545;SDS011;3814;51.454;12.616;2022-09-21T00:58:18;5.72;;;2.80;;
7545;SDS011;3814;51.454;12.616;2022-09-21T01:00:48;4.28;;;2.67;;
7545;SDS011;3814;51.454;12.616;2022-09-21T01:03:13;4.15;;;2.70;;
7545;SDS011;3814;51.454;12.616;2022-09-21T01:05:42;4.45;;;2.83;;
7545;SDS011;3814;51.454;12.616;2022-09-21T01:08:08;4.78;;;2.65;;
7545;SDS011;3814;51.454;12.616;2022-09-21T01:11:02;6.22;;;3.03;;
7545;SDS011;3814;51.454;12.616;2022-09-21T01:13:38;4.60;;;2.90;;
7545;SDS011;3814;51.454;12.616;2022-09-21T01:16:14;5.68;;;3.10;;
7545;SDS011;3814;51.454;12.616;2022-09-21T01:19:20;5.30;;;2.92;;
7545;SDS011;3814;51.454;12.616;2022-09-21T01:24:47;8.02;;;3.17;;
7545;SDS011;3814;51.454;12.616;2022-09-21T01:27:37;4.50;;;3.13;;
7545;SDS011;3814;51.454;12.616;2022-09-21T01:30:11;5.05;;;3.20;;
7545;SDS011;3814;51.454;12.616;2022-09-21T01:32:48;10.20;;;3.80;;
7545;SDS011;3814;51.454;12.616;2022-09-21T01:35:21;6.20;;;3.33;;
7545;SDS011;3814;51.454;12.616;2022-09-21T01:37:54;6.43;;;3.17;;
7545;SDS011;3814;51.454;12.616;2022-09-21T01:40:23;6.13;;;3.13;;
7545;SDS011;3814;51.454;12.616;2022-09-21T01:42:51;5.10;;;2.75;;
7545;SDS011;3814;51.454;12.616;2022-09-21T01:45:20;6.70;;;2.97;;
7545;SDS011;3814;51.454;12.616;2022-09-21T01:47:48;4.88;;;3.15;;
7545;SDS011;3814;51.454;12.616;2022-09-21T01:50:16;6.88;;;3.97;;
7545;SDS011;3814;51.454;12.616;2022-09-21T01:52:45;6.35;;;3.63;;
7545;SDS011;3814;51.454;12.616;2022-09-21T01:55:17;6.10;;;3.35;;
7545;SDS011;3814;51.454;12.616;2022-09-21T01:57:54;5.10;;;3.35;;
7545;SDS011;3814;51.454;12.616;2022-09-21T02:00:22;6.68;;;3.95;;
7545;SDS011;3814;51.454;12.616;2022-09-21T02:02:50;5.20;;;3.58;;
7545;SDS011;3814;51.454;12.616;2022-09-21T02:05:18;6.70;;;3.92;;
7545;SDS011;3814;51.454;12.616;2022-09-21T02:07:46;6.55;;;3.60;;
7545;SDS011;3814;51.454;12.616;2022-09-21T02:10:16;6.70;;;3.70;;
7545;SDS011;3814;51.454;12.616;2022-09-21T02:12:54;6.10;;;3.40;;
7545;SDS011;3814;51.454;12.616;2022-09-21T02:15:25;5.65;;;3.50;;
7545;SDS011;3814;51.454;12.616;2022-09-21T02:18:15;7.05;;;3.97;;
7545;SDS011;3814;51.454;12.616;2022-09-21T02:20:51;6.72;;;3.45;;
7545;SDS011;3814;51.454;12.616;2022-09-21T02:23:43;7.32;;;3.80;;
7545;SDS011;3814;51.454;12.616;2022-09-21T02:26:18;7.35;;;3.88;;
7545;SDS011;3814;51.454;12.616;2022-09-21T02:34:25;4.72;;;3.42;;
7545;SDS011;3814;51.454;12.616;2022-09-21T02:36:57;6.32;;;3.42;;
7545;SDS011;3814;51.454;12.616;2022-09-21T02:39:30;7.38;;;3.75;;
7545;SDS011;3814;51.454;12.616;2022-09-21T02:42:26;6.25;;;3.60;;
7545;SDS011;3814;51.454;12.616;2022-09-21T02:45:02;6.20;;;3.72;;
7545;SDS011;3814;51.454;12.616;2022-09-21T02:47:37;6.10;;;3.83;;
7545;SDS011;3814;51.454;12.616;2022-09-21T02:50:11;5.93;;;3.80;;
7545;SDS011;3814;51.454;12.616;2022-09-21T02:52:40;6.65;;;3.67;;
7545;SDS011;3814;51.454;12.616;2022-09-21T02:55:07;6.63;;;3.72;;
7545;SDS011;3814;51.454;12.616;2022-09-21T02:57:33;6.13;;;3.35;;
7545;SDS011;3814;51.454;12.616;2022-09-21T03:00:03;6.22;;;3.40;;
7545;SDS011;3814;51.454;12.616;2022-09-21T03:02:36;4.97;;;3.05;;
7545;SDS011;3814;51.454;12.616;2022-09-21T03:05:03;6.65;;;3.83;;
7545;SDS011;3814;51.454;12.616;2022-09-21T03:07:29;5.93;;;3.67;;
7545;SDS011;3814;51.454;12.616;2022-09-21T03:09:54;7.05;;;3.75;;
7545;SDS011;3814;51.454;12.616;2022-09-21T03:12:20;6.63;;;4.00;;
7545;SDS011;3814;51.454;12.616;2022-09-21T03:14:46;7.30;;;4.28;;
7545;SDS011;3814;51.454;12.616;2022-09-21T03:17:11;6.97;;;3.95;;
7545;SDS011;3814;51.454;12.616;2022-09-21T03:19:37;7.50;;;4.10;;
7545;SDS011;3814;51.454;12.616;2022-09-21T03:22:02;7.35;;;4.10;;
7545;SDS011;3814;51.454;12.616;2022-09-21T03:24:28;6.13;;;3.67;;
7545;SDS011;3814;51.454;12.616;2022-09-21T03:27:15;6.47;;;4.07;;
7545;SDS011;3814;51.454;12.616;2022-09-21T03:29:42;6.07;;;3.88;;
7545;SDS011;3814;51.454;12.616;2022-09-21T03:32:08;7.07;;;4.05;;
7545;SDS011;3814;51.454;12.616;2022-09-21T03:34:34;8.00;;;4.25;;
7545;SDS011;3814;51.454;12.616;2022-09-21T03:37:00;6.97;;;3.90;;
7545;SDS011;3814;51.454;12.616;2022-09-21T03:39:26;7.47;;;3.80;;
7545;SDS011;3814;51.454;12.616;2022-09-21T03:41:52;7.68;;;4.03;;
7545;SDS011;3814;51.454;12.616;2022-09-21T03:44:20;7.75;;;4.05;;
7545;SDS011;3814;51.454;12.616;2022-09-21T03:46:46;7.78;;;4.30;;
7545;SDS011;3814;51.454;12.616;2022-09-21T03:49:11;8.68;;;4.00;;
7545;SDS011;3814;51.454;12.616;2022-09-21T03:51:37;6.63;;;3.92;;
7545;SDS011;3814;51.454;12.616;2022-09-21T03:54:03;5.93;;;3.92;;
7545;SDS011;3814;51.454;12.616;2022-09-21T03:56:29;6.65;;;4.38;;
7545;SDS011;3814;51.454;12.616;2022-09-21T03:58:55;6.97;;;4.10;;
7545;SDS011;3814;51.454;12.616;2022-09-21T04:01:20;6.25;;;4.22;;
7545;SDS011;3814;51.454;12.616;2022-09-21T04:03:46;8.75;;;4.43;;
7545;SDS011;3814;51.454;12.616;2022-09-21T04:06:12;8.07;;;4.00;;
7545;SDS011;3814;51.454;12.616;2022-09-21T04:08:38;6.45;;;4.38;;
7545;SDS011;3814;51.454;12.616;2022-09-21T04:11:08;6.60;;;4.20;;
7545;SDS011;3814;51.454;12.616;2022-09-21T04:13:36;6.35;;;3.63;;
7545;SDS011;3814;51.454;12.616;2022-09-21T04:16:04;7.68;;;4.43;;
7545;SDS011;3814;51.454;12.616;2022-09-21T04:18:30;8.55;;;4.55;;
7545;SDS011;3814;51.454;12.616;2022-09-21T04:20:56;7.57;;;4.50;;
7545;SDS011;3814;51.454;12.616;2022-09-21T04:23:22;9.20;;;4.80;;
7545;SDS011;3814;51.454;12.616;2022-09-21T04:25:48;9.02;;;4.43;;
7545;SDS011;3814;51.454;12.616;2022-09-21T04:28:15;7.80;;;4.38;;
7545;SDS011;3814;51.454;12.616;2022-09-21T04:30:41;7.50;;;4.05;;
7545;SDS011;3814;51.454;12.616;2022-09-21T04:33:06;6.68;;;3.95;;
7545;SDS011;3814;51.454;12.616;2022-09-21T04:35:31;8.70;;;4.63;;
7545;SDS011;3814;51.454;12.616;2022-09-21T04:37:57;8.18;;;5.00;;
7545;SDS011;3814;51.454;12.616;2022-09-21T04:40:22;8.65;;;4.78;;
7545;SDS011;3814;51.454;12.616;2022-09-21T04:42:51;8.25;;;4.55;;
7545;SDS011;3814;51.454;12.616;2022-09-21T04:45:17;8.90;;;4.57;;
7545;SDS011;3814;51.454;12.616;2022-09-21T04:47:43;8.88;;;5.13;;
7545;SDS011;3814;51.454;12.616;2022-09-21T04:50:09;7.78;;;4.72;;
7545;SDS011;3814;51.454;12.616;2022-09-21T04:52:34;7.85;;;4.63;;
7545;SDS011;3814;51.454;12.616;2022-09-21T04:55:00;7.55;;;4.50;;
7545;SDS011;3814;51.454;12.616;2022-09-21T04:57:26;10.80;;;5.13;;
7545;SDS011;3814;51.454;12.616;2022-09-21T04:59:51;9.35;;;5.38;;
7545;SDS011;3814;51.454;12.616;2022-09-21T05:02:16;8.27;;;4.93;;
7545;SDS011;3814;51.454;12.616;2022-09-21T05:04:42;8.27;;;4.78;;
7545;SDS011;3814;51.454;12.616;2022-09-21T05:07:07;7.55;;;4.93;;
7545;SDS011;3814;51.454;12.616;2022-09-21T05:09:32;8.63;;;4.70;;
7545;SDS011;3814;51.454;12.616;2022-09-21T05:12:16;8.50;;;4.93;;
7545;SDS011;3814;51.454;12.616;2022-09-21T05:14:41;8.63;;;4.90;;
7545;SDS011;3814;51.454;12.616;2022-09-21T05:17:08;8.88;;;5.43;;
7545;SDS011;3814;51.454;12.616;2022-09-21T05:19:34;8.65;;;5.13;;
7545;SDS011;3814;51.454;12.616;2022-09-21T05:21:59;9.85;;;5.70;;
7545;SDS011;3814;51.454;12.616;2022-09-21T05:24:25;9.95;;;5.97;;
7545;SDS011;3814;51.454;12.616;2022-09-21T05:26:50;10.13;;;5.72;;
7545;SDS011;3814;51.454;12.616;2022-09-21T05:29:15;8.15;;;5.10;;
7545;SDS011;3814;51.454;12.616;2022-09-21T05:31:43;11.32;;;6.07;;
7545;SDS011;3814;51.454;12.616;2022-09-21T05:34:31;10.48;;;6.30;;
7545;SDS011;3814;51.454;12.616;2022-09-21T05:37:19;15.23;;;7.03;;
7545;SDS011;3814;51.454;12.616;2022-09-21T05:42:21;10.82;;;6.03;;
7545;SDS011;3814;51.454;12.616;2022-09-21T05:44:46;8.32;;;4.88;;
7545;SDS011;3814;51.454;12.616;2022-09-21T05:47:21;12.85;;;6.18;;
7545;SDS011;3814;51.454;12.616;2022-09-21T05:49:54;8.63;;;5.57;;
7545;SDS011;3814;51.454;12.616;2022-09-21T05:55:00;8.23;;;5.35;;
7545;SDS011;3814;51.454;12.616;2022-09-21T05:57:54;7.05;;;4.43;;
7545;SDS011;3814;51.454;12.616;2022-09-21T06:00:25;11.45;;;6.05;;
7545;SDS011;3814;51.454;12.616;2022-09-21T06:05:43;9.57;;;4.93;;
7545;SDS011;3814;51.454;12.616;2022-09-21T06:08:09;9.20;;;4.97;;
7545;SDS011;3814;51.454;12.616;2022-09-21T06:10:34;9.93;;;6.05;;
7545;SDS011;3814;51.454;12.616;2022-09-21T06:13:00;11.20;;;5.57;;
7545;SDS011;3814;51.454;12.616;2022-09-21T06:15:25;12.52;;;6.35;;
7545;SDS011;3814;51.454;12.616;2022-09-21T06:17:50;9.63;;;6.30;;
7545;SDS011;3814;51.454;12.616;2022-09-21T06:20:16;12.63;;;6.82;;
7545;SDS011;3814;51.454;12.616;2022-09-21T06:22:41;11.43;;;6.35;;
7545;SDS011;3814;51.454;12.616;2022-09-21T06:25:07;11.52;;;6.07;;
7545;SDS011;3814;51.454;12.616;2022-09-21T06:27:32;13.48;;;7.10;;
7545;SDS011;3814;51.454;12.616;2022-09-21T06:29:57;11.30;;;6.93;;
7545;SDS011;3814;51.454;12.616;2022-09-21T06:32:23;13.07;;;7.18;;
7545;SDS011;3814;51.454;12.616;2022-09-21T06:34:48;14.38;;;7.95;;
7545;SDS011;3814;51.454;12.616;2022-09-21T06:37:14;16.48;;;7.20;;
7545;SDS011;3814;51.454;12.616;2022-09-21T06:39:39;12.77;;;7.32;;
7545;SDS011;3814;51.454;12.616;2022-09-21T07:30:17;12.35;;;6.57;;
7545;SDS011;3814;51.454;12.616;2022-09-21T07:32:44;12.88;;;6.53;;
7545;SDS011;3814;51.454;12.616;2022-09-21T07:35:09;11.35;;;6.05;;
7545;SDS011;3814;51.454;12.616;2022-09-21T07:37:35;9.80;;;6.00;;
7545;SDS011;3814;51.454;12.616;2022-09-21T07:40:02;12.52;;;5.90;;
7545;SDS011;3814;51.454;12.616;2022-09-21T07:42:29;9.68;;;5.55;;
7545;SDS011;3814;51.454;12.616;2022-09-21T07:44:55;11.52;;;5.47;;
7545;SDS011;3814;51.454;12.616;2022-09-21T07:47:20;9.60;;;5.20;;
7545;SDS011;3814;51.454;12.616;2022-09-21T07:49:45;10.90;;;4.80;;
7545;SDS011;3814;51.454;12.616;2022-09-21T07:52:11;9.95;;;4.70;;
7545;SDS011;3814;51.454;12.616;2022-09-21T07:54:36;9.40;;;5.00;;
7545;SDS011;3814;51.454;12.616;2022-09-21T07:57:01;9.80;;;4.97;;
7545;SDS011;3814;51.454;12.616;2022-09-21T07:59:45;8.80;;;4.38;;
7545;SDS011;3814;51.454;12.616;2022-09-21T08:02:10;9.25;;;4.97;;
7545;SDS011;3814;51.454;12.616;2022-09-21T08:04:36;8.68;;;4.80;;
7545;SDS011;3814;51.454;12.616;2022-09-21T08:07:01;8.52;;;4.95;;
7545;SDS011;3814;51.454;12.616;2022-09-21T08:09:27;8.15;;;4.32;;
7545;SDS011;3814;51.454;12.616;2022-09-21T08:11:55;9.27;;;3.92;;
7545;SDS011;3814;51.454;12.616;2022-09-21T08:14:21;8.10;;;4.32;;
7545;SDS011;3814;51.454;12.616;2022-09-21T08:16:47;7.25;;;4.40;;
7545;SDS011;3814;51.454;12.616;2022-09-21T08:19:13;8.90;;;4.38;;
7545;SDS011;3814;51.454;12.616;2022-09-21T08:21:38;7.63;;;4.13;;
7545;SDS011;3814;51.454;12.616;2022-09-21T08:24:04;8.65;;;4.63;;
7545;SDS011;3814;51.454;12.616;2022-09-21T08:26:30;10.07;;;4.20;;
7545;SDS011;3814;51.454;12.616;2022-09-21T08:28:55;9.10;;;4.38;;
7545;SDS011;3814;51.454;12.616;2022-09-21T09:33:42;10.05;;;4.50;;
7545;SDS011;3814;51.454;12.616;2022-09-21T09:36:11;6.25;;;3.75;;
7545;SDS011;3814;51.454;12.616;2022-09-21T09:38:51;8.63;;;4.03;;
7545;SDS011;3814;51.454;12.616;2022-09-21T09:51:53;6.75;;;3.80;;
7545;SDS011;3814;51.454;12.616;2022-09-21T09:54:18;10.98;;;3.60;;
7545;SDS011;3814;51.454;12.616;2022-09-21T09:56:50;8.05;;;3.35;;
7545;SDS011;3814;51.454;12.616;2022-09-21T09:59:33;7.05;;;2.88;;
7545;SDS011;3814;51.454;12.616;2022-09-21T10:02:21;5.45;;;2.60;;
7545;SDS011;3814;51.454;12.616;2022-09-21T10:07:20;5.57;;;2.70;;
7545;SDS011;3814;51.454;12.616;2022-09-21T10:09:57;4.88;;;2.42;;
7545;SDS011;3814;51.454;12.616;2022-09-21T10:12:23;7.97;;;2.60;;
7545;SDS011;3814;51.454;12.616;2022-09-21T10:14:53;7.18;;;2.40;;
7545;SDS011;3814;51.454;12.616;2022-09-21T10:17:22;6.30;;;2.20;;
7545;SDS011;3814;51.454;12.616;2022-09-21T10:19:48;3.90;;;2.10;;
7545;SDS011;3814;51.454;12.616;2022-09-21T10:22:23;6.50;;;2.25;;
7545;SDS011;3814;51.454;12.616;2022-09-21T10:24:49;4.10;;;2.00;;
7545;SDS011;3814;51.454;12.616;2022-09-21T10:27:16;5.45;;;2.42;;
7545;SDS011;3814;51.454;12.616;2022-09-21T10:29:46;6.22;;;2.10;;
7545;SDS011;3814;51.454;12.616;2022-09-21T13:48:39;2.05;;;1.00;;
7545;SDS011;3814;51.454;12.616;2022-09-21T13:51:05;2.78;;;1.10;;
7545;SDS011;3814;51.454;12.616;2022-09-21T13:53:33;2.72;;;1.20;;
7545;SDS011;3814;51.454;12.616;2022-09-21T13:56:08;2.80;;;1.25;;
7545;SDS011;3814;51.454;12.616;2022-09-21T13:58:42;2.60;;;1.10;;
7545;SDS011;3814;51.454;12.616;2022-09-21T14:01:23;3.92;;;1.10;;
7545;SDS011;3814;51.454;12.616;2022-09-21T14:03:57;1.58;;;1.08;;
7545;SDS011;3814;51.454;12.616;2022-09-21T14:06:32;1.60;;;1.10;;
7545;SDS011;3814;51.454;12.616;2022-09-21T14:09:02;1.60;;;1.10;;
7545;SDS011;3814;51.454;12.616;2022-09-21T14:16:53;1.67;;;1.00;;
7545;SDS011;3814;51.454;12.616;2022-09-21T14:24:47;1.92;;;1.20;;
7545;SDS011;3814;51.454;12.616;2022-09-21T14:30:00;2.53;;;1.20;;
7545;SDS011;3814;51.454;12.616;2022-09-21T14:32:31;2.97;;;1.40;;
7545;SDS011;3814;51.454;12.616;2022-09-21T14:35:00;3.45;;;1.40;;
7545;SDS011;3814;51.454;12.616;2022-09-21T14:37:33;2.88;;;1.38;;
7545;SDS011;3814;51.454;12.616;2022-09-21T14:40:03;2.10;;;1.30;;
7545;SDS011;3814;51.454;12.616;2022-09-21T14:42:45;1.60;;;1.00;;
7545;SDS011;3814;51.454;12.616;2022-09-21T14:45:13;1.73;;;1.30;;
7545;SDS011;3814;51.454;12.616;2022-09-21T14:47:45;1.52;;;1.10;;
7545;SDS011;3814;51.454;12.616;2022-09-21T14:50:29;1.98;;;1.10;;
7545;SDS011;3814;51.454;12.616;2022-09-21T14:53:02;2.20;;;1.13;;
7545;SDS011;3814;51.454;12.616;2022-09-21T14:55:51;4.07;;;1.20;;
7545;SDS011;3814;51.454;12.616;2022-09-21T14:58:31;1.80;;;1.20;;
7545;SDS011;3814;51.454;12.616;2022-09-21T15:10:01;2.10;;;0.88;;
7545;SDS011;3814;51.454;12.616;2022-09-21T15:13:15;1.55;;;1.00;;
7545;SDS011;3814;51.454;12.616;2022-09-21T15:16:07;2.88;;;1.23;;
7545;SDS011;3814;51.454;12.616;2022-09-21T15:18:41;1.77;;;0.90;;
7545;SDS011;3814;51.454;12.616;2022-09-21T15:21:24;1.30;;;1.00;;
7545;SDS011;3814;51.454;12.616;2022-09-21T15:23:51;1.30;;;0.95;;
7545;SDS011;3814;51.454;12.616;2022-09-21T15:26:25;1.95;;;1.00;;
7545;SDS011;3814;51.454;12.616;2022-09-21T15:28:58;1.75;;;1.00;;
7545;SDS011;3814;51.454;12.616;2022-09-21T15:31:29;1.83;;;0.90;;
7545;SDS011;3814;51.454;12.616;2022-09-21T15:33:56;2.17;;;1.10;;
7545;SDS011;3814;51.454;12.616;2022-09-21T15:36:26;2.83;;;1.00;;
7545;SDS011;3814;51.454;12.616;2022-09-21T15:38:53;1.63;;;1.00;;
7545;SDS011;3814;51.454;12.616;2022-09-21T15:44:11;2.47;;;1.05;;
7545;SDS011;3814;51.454;12.616;2022-09-21T15:49:13;2.75;;;1.10;;
7545;SDS011;3814;51.454;12.616;2022-09-21T15:51:42;1.67;;;1.20;;
7545;SDS011;3814;51.454;12.616;2022-09-21T15:54:25;2.00;;;1.20;;
7545;SDS011;3814;51.454;12.616;2022-09-21T15:56:56;8.35;;;4.03;;
7545;SDS011;3814;51.454;12.616;2022-09-21T15:59:25;9.13;;;4.43;;
7545;SDS011;3814;51.454;12.616;2022-09-21T16:01:51;8.57;;;3.75;;
7545;SDS011;3814;51.454;12.616;2022-09-21T16:04:23;14.60;;;5.90;;
7545;SDS011;3814;51.454;12.616;2022-09-21T16:07:04;8.23;;;4.43;;
7545;SDS011;3814;51.454;12.616;2022-09-21T16:09:35;4.75;;;2.35;;
7545;SDS011;3814;51.454;12.616;2022-09-21T16:14:50;2.60;;;1.50;;
7545;SDS011;3814;51.454;12.616;2022-09-21T16:17:19;2.20;;;1.23;;
7545;SDS011;3814;51.454;12.616;2022-09-21T16:22:15;1.90;;;1.30;;
7545;SDS011;3814;51.454;12.616;2022-09-21T16:24:50;2.40;;;1.25;;
7545;SDS011;3814;51.454;12.616;2022-09-21T16:27:17;2.75;;;1.48;;
7545;SDS011;3814;51.454;12.616;2022-09-21T16:29:44;1.98;;;1.27;;
7545;SDS011;3814;51.454;12.616;2022-09-21T16:34:44;2.63;;;1.38;;
7545;SDS011;3814;51.454;12.616;2022-09-21T16:37:28;2.17;;;1.25;;
7545;SDS011;3814;51.454;12.616;2022-09-21T16:39:55;1.90;;;1.02;;
7545;SDS011;3814;51.454;12.616;2022-09-21T16:42:24;1.73;;;1.15;;
7545;SDS011;3814;51.454;12.616;2022-09-21T16:44:52;3.50;;;1.13;;
7545;SDS011;3814;51.454;12.616;2022-09-21T16:47:22;2.70;;;1.40;;
7545;SDS011;3814;51.454;12.616;2022-09-21T16:49:51;2.65;;;1.70;;
7545;SDS011;3814;51.454;12.616;2022-09-21T16:52:24;3.88;;;1.98;;
7545;SDS011;3814;51.454;12.616;2022-09-21T16:54:52;2.83;;;1.90;;
7545;SDS011;3814;51.454;12.616;2022-09-21T16:57:18;2.95;;;1.90;;
7545;SDS011;3814;51.454;12.616;2022-09-21T16:59:44;2.88;;;1.88;;
7545;SDS011;3814;51.454;12.616;2022-09-21T17:02:10;5.00;;;2.00;;
7545;SDS011;3814;51.454;12.616;2022-09-21T17:04:40;4.18;;;2.00;;
7545;SDS011;3814;51.454;12.616;2022-09-21T17:07:06;3.70;;;2.20;;
7545;SDS011;3814;51.454;12.616;2022-09-21T17:09:33;5.15;;;3.00;;
7545;SDS011;3814;51.454;12.616;2022-09-21T17:12:00;7.43;;;3.83;;
7545;SDS011;3814;51.454;12.616;2022-09-21T17:14:30;6.80;;;3.97;;
7545;SDS011;3814;51.454;12.616;2022-09-21T17:16:58;5.15;;;3.28;;
7545;SDS011;3814;51.454;12.616;2022-09-21T17:19:24;7.65;;;3.60;;
7545;SDS011;3814;51.454;12.616;2022-09-21T17:21:50;6.90;;;4.28;;
7545;SDS011;3814;51.454;12.616;2022-09-21T17:24:16;9.85;;;5.82;;
7545;SDS011;3814;51.454;12.616;2022-09-21T17:26:42;10.77;;;6.78;;
7545;SDS011;3814;51.454;12.616;2022-09-21T17:29:24;13.93;;;8.35;;
7545;SDS011;3814;51.454;12.616;2022-09-21T17:31:54;16.50;;;8.48;;
7545;SDS011;3814;51.454;12.616;2022-09-21T17:34:24;21.58;;;9.02;;
7545;SDS011;3814;51.454;12.616;2022-09-21T17:36:51;25.30;;;10.38;;
7545;SDS011;3814;51.454;12.616;2022-09-21T17:39:39;25.20;;;10.00;;
7545;SDS011;3814;51.454;12.616;2022-09-21T17:42:20;23.63;;;9.52;;
7545;SDS011;3814;51.454;12.616;2022-09-21T17:45:03;20.20;;;8.18;;
7545;SDS011;3814;51.454;12.616;2022-09-21T17:47:39;12.80;;;6.35;;
7545;SDS011;3814;51.454;12.616;2022-09-21T17:53:00;9.90;;;5.18;;
7545;SDS011;3814;51.454;12.616;2022-09-21T17:55:49;7.93;;;4.10;;
7545;SDS011;3814;51.454;12.616;2022-09-21T18:03:32;6.85;;;4.18;;
7545;SDS011;3814;51.454;12.616;2022-09-21T18:06:05;9.20;;;5.38;;
7545;SDS011;3814;51.454;12.616;2022-09-21T18:08:32;9.15;;;5.20;;
7545;SDS011;3814;51.454;12.616;2022-09-21T18:16:33;7.18;;;4.35;;
7545;SDS011;3814;51.454;12.616;2022-09-21T18:24:44;8.60;;;4.57;;
7545;SDS011;3814;51.454;12.616;2022-09-21T18:27:10;8.02;;;5.07;;
7545;SDS011;3814;51.454;12.616;2022-09-21T18:29:36;8.00;;;4.75;;
7545;SDS011;3814;51.454;12.616;2022-09-21T18:32:16;7.93;;;4.55;;
7545;SDS011;3814;51.454;12.616;2022-09-21T18:34:52;9.70;;;5.20;;
7545;SDS011;3814;51.454;12.616;2022-09-21T18:37:49;8.98;;;4.90;;
7545;SDS011;3814;51.454;12.616;2022-09-21T18:40:27;11.25;;;5.10;;
7545;SDS011;3814;51.454;12.616;2022-09-21T18:43:01;9.60;;;5.38;;
7545;SDS011;3814;51.454;12.616;2022-09-21T18:45:50;8.45;;;4.78;;
7545;SDS011;3814;51.454;12.616;2022-09-21T18:48:21;7.55;;;4.22;;
7545;SDS011;3814;51.454;12.616;2022-09-21T18:51:09;7.70;;;3.97;;
7545;SDS011;3814;51.454;12.616;2022-09-21T18:56:12;8.57;;;3.97;;
7545;SDS011;3814;51.454;12.616;2022-09-21T18:58:38;8.00;;;4.22;;
7545;SDS011;3814;51.454;12.616;2022-09-21T19:01:07;6.25;;;3.70;;
7545;SDS011;3814;51.454;12.616;2022-09-21T19:03:38;6.93;;;3.90;;
7545;SDS011;3814;51.454;12.616;2022-09-21T19:09:12;7.13;;;3.97;;
7545;SDS011;3814;51.454;12.616;2022-09-21T19:11:53;7.90;;;4.38;;
7545;SDS011;3814;51.454;12.616;2022-09-21T19:14:36;10.65;;;5.43;;
7545;SDS011;3814;51.454;12.616;2022-09-21T19:17:15;9.48;;;4.80;;
7545;SDS011;3814;51.454;12.616;2022-09-21T19:23:05;8.00;;;4.90;;
7545;SDS011;3814;51.454;12.616;2022-09-21T19:25:47;9.57;;;4.60;;
7545;SDS011;3814;51.454;12.616;2022-09-21T19:28:27;5.88;;;3.90;;
7545;SDS011;3814;51.454;12.616;2022-09-21T19:31:13;8.38;;;4.00;;
7545;SDS011;3814;51.454;12.616;2022-09-21T19:33:39;7.47;;;4.03;;
7545;SDS011;3814;51.454;12.616;2022-09-21T19:36:05;7.00;;;3.55;;
7545;SDS011;3814;51.454;12.616;2022-09-21T19:38:32;5.38;;;3.55;;
7545;SDS011;3814;51.454;12.616;2022-09-21T19:41:06;5.63;;;3.75;;
7545;SDS011;3814;51.454;12.616;2022-09-21T19:43:43;6.50;;;3.88;;
7545;SDS011;3814;51.454;12.616;2022-09-21T19:46:41;7.45;;;3.67;;
7545;SDS011;3814;51.454;12.616;2022-09-21T19:49:40;5.32;;;3.47;;
7545;SDS011;3814;51.454;12.616;2022-09-21T19:52:10;7.50;;;3.88;;
7545;SDS011;3814;51.454;12.616;2022-09-21T19:54:39;6.65;;;3.70;;
7545;SDS011;3814;51.454;12.616;2022-09-21T19:57:23;6.22;;;3.47;;
7545;SDS011;3814;51.454;12.616;2022-09-21T20:00:08;5.68;;;3.55;;
7545;SDS011;3814;51.454;12.616;2022-09-21T20:02:39;6.18;;;3.22;;
7545;SDS011;3814;51.454;12.616;2022-09-21T20:05:13;6.70;;;3.05;;
7545;SDS011;3814;51.454;12.616;2022-09-21T20:08:01;8.18;;;3.60;;
7545;SDS011;3814;51.454;12.616;2022-09-21T20:10:51;5.75;;;3.13;;
7545;SDS011;3814;51.454;12.616;2022-09-21T20:13:24;4.93;;;3.20;;
7545;SDS011;3814;51.454;12.616;2022-09-21T20:16:00;5.93;;;3.17;;
7545;SDS011;3814;51.454;12.616;2022-09-21T20:21:18;5.22;;;3.38;;
7545;SDS011;3814;51.454;12.616;2022-09-21T20:23:46;5.75;;;2.90;;
7545;SDS011;3814;51.454;12.616;2022-09-21T20:26:22;5.95;;;2.92;;
7545;SDS011;3814;51.454;12.616;2022-09-21T20:28:52;5.10;;;2.85;;
7545;SDS011;3814;51.454;12.616;2022-09-21T20:31:18;6.03;;;2.78;;
7545;SDS011;3814;51.454;12.616;2022-09-21T20:33:45;6.13;;;3.10;;
7545;SDS011;3814;51.454;12.616;2022-09-21T20:36:11;5.68;;;3.33;;
7545;SDS011;3814;51.454;12.616;2022-09-21T20:38:36;7.03;;;3.90;;
7545;SDS011;3814;51.454;12.616;2022-09-21T20:41:02;7.45;;;4.03;;
7545;SDS011;3814;51.454;12.616;2022-09-21T20:43:28;6.82;;;3.97;;
7545;SDS011;3814;51.454;12.616;2022-09-21T20:45:54;7.38;;;4.18;;
7545;SDS011;3814;51.454;12.616;2022-09-21T20:48:21;7.93;;;3.67;;
7545;SDS011;3814;51.454;12.616;2022-09-21T20:50:47;8.98;;;4.43;;
7545;SDS011;3814;51.454;12.616;2022-09-21T20:53:14;7.10;;;4.00;;
7545;SDS011;3814;51.454;12.616;2022-09-21T20:55:40;6.97;;;4.03;;
7545;SDS011;3814;51.454;12.616;2022-09-21T20:58:09;6.68;;;4.00;;
7545;SDS011;3814;51.454;12.616;2022-09-21T21:00:35;6.82;;;3.90;;
7545;SDS011;3814;51.454;12.616;2022-09-21T21:03:01;6.80;;;3.97;;
7545;SDS011;3814;51.454;12.616;2022-09-21T21:05:27;5.45;;;3.53;;
7545;SDS011;3814;51.454;12.616;2022-09-21T21:07:53;4.88;;;3.20;;
7545;SDS011;3814;51.454;12.616;2022-09-21T21:10:19;8.60;;;4.15;;
7545;SDS011;3814;51.454;12.616;2022-09-21T21:12:45;6.90;;;3.65;;
7545;SDS011;3814;51.454;12.616;2022-09-21T21:15:10;6.78;;;3.63;;
7545;SDS011;3814;51.454;12.616;2022-09-21T21:17:36;7.13;;;4.35;;
7545;SDS011;3814;51.454;12.616;2022-09-21T21:20:03;7.35;;;4.63;;
7545;SDS011;3814;51.454;12.616;2022-09-21T21:22:29;6.95;;;4.38;;
7545;SDS011;3814;51.454;12.616;2022-09-21T21:24:54;7.22;;;4.00;;
7545;SDS011;3814;51.454;12.616;2022-09-21T21:27:20;5.53;;;3.47;;
7545;SDS011;3814;51.454;12.616;2022-09-21T21:29:49;5.28;;;3.38;;
7545;SDS011;3814;51.454;12.616;2022-09-21T21:32:16;5.45;;;3.63;;
7545;SDS011;3814;51.454;12.616;2022-09-21T21:34:42;6.30;;;3.90;;
7545;SDS011;3814;51.454;12.616;2022-09-21T21:37:08;5.38;;;3.47;;
7545;SDS011;3814;51.454;12.616;2022-09-21T21:39:34;5.40;;;3.67;;
7545;SDS011;3814;51.454;12.616;2022-09-21T21:41:59;6.47;;;3.53;;
7545;SDS011;3814;51.454;12.616;2022-09-21T21:44:25;6.03;;;3.22;;
7545;SDS011;3814;51.454;12.616;2022-09-21T21:46:50;5.57;;;3.50;;
7545;SDS011;3814;51.454;12.616;2022-09-21T21:49:17;5.72;;;3.60;;
7545;SDS011;3814;51.454;12.616;2022-09-21T21:51:42;5.57;;;3.10;;
7545;SDS011;3814;51.454;12.616;2022-09-21T21:54:08;5.03;;;3.10;;
7545;SDS011;3814;51.454;12.616;2022-09-21T21:56:34;6.47;;;3.65;;
7545;SDS011;3814;51.454;12.616;2022-09-21T21:58:59;5.03;;;3.17;;
7545;SDS011;3814;51.454;12.616;2022-09-21T22:01:25;4.60;;;3.17;;
7545;SDS011;3814;51.454;12.616;2022-09-21T22:03:54;3.95;;;2.80;;
7545;SDS011;3814;51.454;12.616;2022-09-21T22:06:21;3.90;;;2.75;;